sensor_id;sensor_type;location;lat;lon;timestamp;temperature;humidity
12089;DHT22;6107;49.078;8.578;2023-05-29T00:01:29;15.20;99.90
12089;DHT22;6107;49.078;8.578;2023-05-29T00:03:56;15.30;99.90
12089;DHT22;6107;49.078;8.578;2023-05-29T00:06:22;15.30;99.90
12089;DHT22;6107;49.078;8.578;2023-05-29T00:08:48;15.20;99.90
12089;DHT22;6107;49.078;8.578;2023-05-29T00:11:14;15.10;99.90
12089;DHT22;6107;49.078;8.578;2023-05-29T00:13:40;15.10;99.90
12089;DHT22;6107;49.078;8.578;2023-05-29T00:16:05;15.00;99.90
12089;DHT22;6107;49.078;8.578;2023-05-29T00:18:31;15.10;99.90
12089;DHT22;6107;49.078;8.578;2023-05-29T00:20:57;15.10;99.90
12089;DHT22;6107;49.078;8.578;2023-05-29T00:23:23;15.10;99.90
12089;DHT22;6107;49.078;8.578;2023-05-29T00:25:48;15.10;99.90
12089;DHT22;6107;49.078;8.578;2023-05-29T00:28:14;15.00;99.90
12089;DHT22;6107;49.078;8.578;2023-05-29T00:30:40;14.90;99.90
12089;DHT22;6107;49.078;8.578;2023-05-29T00:33:05;14.90;99.90
12089;DHT22;6107;49.078;8.578;2023-05-29T00:35:31;14.90;99.90
12089;DHT22;6107;49.078;8.578;2023-05-29T00:37:57;15.00;99.90
12089;DHT22;6107;49.078;8.578;2023-05-29T00:40:23;14.90;99.90
12089;DHT22;6107;49.078;8.578;2023-05-29T00:42:49;14.90;99.90
12089;DHT22;6107;49.078;8.578;2023-05-29T00:45:14;14.80;99.90
12089;DHT22;6107;49.078;8.578;2023-05-29T00:47:41;14.80;99.90
12089;DHT22;6107;49.078;8.578;2023-05-29T00:50:09;14.80;99.90
12089;DHT22;6107;49.078;8.578;2023-05-29T00:52:37;14.80;99.90
12089;DHT22;6107;49.078;8.578;2023-05-29T00:55:03;14.70;99.90
12089;DHT22;6107;49.078;8.578;2023-05-29T00:57:28;14.70;99.90
12089;DHT22;6107;49.078;8.578;2023-05-29T00:59:55;14.70;99.90
12089;DHT22;6107;49.078;8.578;2023-05-29T01:02:21;14.70;99.90
12089;DHT22;6107;49.078;8.578;2023-05-29T01:04:47;14.70;99.90
12089;DHT22;6107;49.078;8.578;2023-05-29T01:07:13;14.50;99.90
12089;DHT22;6107;49.078;8.578;2023-05-29T01:09:40;14.50;99.90
12089;DHT22;6107;49.078;8.578;2023-05-29T01:20:40;14.50;99.90
12089;DHT22;6107;49.078;8.578;2023-05-29T01:28:24;14.40;99.90
12089;DHT22;6107;49.078;8.578;2023-05-29T01:30:53;14.50;99.90
12089;DHT22;6107;49.078;8.578;2023-05-29T01:33:19;14.40;99.90
12089;DHT22;6107;49.078;8.578;2023-05-29T01:35:45;14.30;99.90
12089;DHT22;6107;49.078;8.578;2023-05-29T01:38:10;14.30;99.90
12089;DHT22;6107;49.078;8.578;2023-05-29T01:40:36;14.10;99.90
12089;DHT22;6107;49.078;8.578;2023-05-29T01:43:02;14.10;99.90
12089;DHT22;6107;49.078;8.578;2023-05-29T01:45:28;14.10;99.90
12089;DHT22;6107;49.078;8.578;2023-05-29T01:47:54;14.00;99.90
12089;DHT22;6107;49.078;8.578;2023-05-29T01:50:20;14.00;99.90
12089;DHT22;6107;49.078;8.578;2023-05-29T01:52:47;13.60;99.90
12089;DHT22;6107;49.078;8.578;2023-05-29T01:55:13;13.40;99.90
12089;DHT22;6107;49.078;8.578;2023-05-29T01:57:38;13.30;99.90
12089;DHT22;6107;49.078;8.578;2023-05-29T02:00:05;13.40;99.90
12089;DHT22;6107;49.078;8.578;2023-05-29T02:02:37;13.20;99.90
12089;DHT22;6107;49.078;8.578;2023-05-29T02:05:04;12.90;99.90
12089;DHT22;6107;49.078;8.578;2023-05-29T02:07:30;12.90;99.90
12089;DHT22;6107;49.078;8.578;2023-05-29T02:09:55;13.00;99.90
12089;DHT22;6107;49.078;8.578;2023-05-29T02:12:21;13.40;99.90
12089;DHT22;6107;49.078;8.578;2023-05-29T02:14:46;13.10;99.90
12089;DHT22;6107;49.078;8.578;2023-05-29T02:17:12;13.00;99.90
12089;DHT22;6107;49.078;8.578;2023-05-29T02:19:38;12.80;99.90
12089;DHT22;6107;49.078;8.578;2023-05-29T02:22:03;12.60;99.90
12089;DHT22;6107;49.078;8.578;2023-05-29T02:24:29;12.80;99.90
12089;DHT22;6107;49.078;8.578;2023-05-29T02:26:55;12.90;99.90
12089;DHT22;6107;49.078;8.578;2023-05-29T02:29:20;12.40;99.90
12089;DHT22;6107;49.078;8.578;2023-05-29T02:31:46;12.30;99.90
12089;DHT22;6107;49.078;8.578;2023-05-29T02:34:11;12.10;99.90
12089;DHT22;6107;49.078;8.578;2023-05-29T02:36:37;12.30;99.90
12089;DHT22;6107;49.078;8.578;2023-05-29T02:39:04;12.10;99.90
12089;DHT22;6107;49.078;8.578;2023-05-29T02:41:31;11.90;99.90
12089;DHT22;6107;49.078;8.578;2023-05-29T02:43:56;12.20;99.90
12089;DHT22;6107;49.078;8.578;2023-05-29T02:46:22;12.10;99.90
12089;DHT22;6107;49.078;8.578;2023-05-29T02:48:47;12.30;99.90
12089;DHT22;6107;49.078;8.578;2023-05-29T02:51:13;11.90;99.90
12089;DHT22;6107;49.078;8.578;2023-05-29T02:53:39;12.00;99.90
12089;DHT22;6107;49.078;8.578;2023-05-29T02:56:06;12.10;99.90
12089;DHT22;6107;49.078;8.578;2023-05-29T02:58:33;12.00;99.90
12089;DHT22;6107;49.078;8.578;2023-05-29T03:01:00;12.50;99.90
12089;DHT22;6107;49.078;8.578;2023-05-29T03:03:28;12.10;99.90
12089;DHT22;6107;49.078;8.578;2023-05-29T03:05:53;12.10;99.90
12089;DHT22;6107;49.078;8.578;2023-05-29T03:08:19;11.90;99.90
12089;DHT22;6107;49.078;8.578;2023-05-29T03:10:44;11.90;99.90
12089;DHT22;6107;49.078;8.578;2023-05-29T03:13:10;12.00;99.90
12089;DHT22;6107;49.078;8.578;2023-05-29T03:15:36;11.80;99.90
12089;DHT22;6107;49.078;8.578;2023-05-29T03:18:01;11.80;99.90
12089;DHT22;6107;49.078;8.578;2023-05-29T03:20:27;11.60;99.90
12089;DHT22;6107;49.078;8.578;2023-05-29T03:22:53;11.30;99.90
12089;DHT22;6107;49.078;8.578;2023-05-29T03:25:20;11.20;99.90
12089;DHT22;6107;49.078;8.578;2023-05-29T03:27:45;11.40;99.90
12089;DHT22;6107;49.078;8.578;2023-05-29T03:30:11;11.90;99.90
12089;DHT22;6107;49.078;8.578;2023-05-29T03:32:37;11.70;99.90
12089;DHT22;6107;49.078;8.578;2023-05-29T03:35:02;11.50;99.90
12089;DHT22;6107;49.078;8.578;2023-05-29T03:37:29;11.60;99.90
12089;DHT22;6107;49.078;8.578;2023-05-29T03:39:54;11.50;99.90
12089;DHT22;6107;49.078;8.578;2023-05-29T03:42:20;11.50;99.90
12089;DHT22;6107;49.078;8.578;2023-05-29T03:44:46;11.60;99.90
12089;DHT22;6107;49.078;8.578;2023-05-29T03:47:12;11.50;99.90
12089;DHT22;6107;49.078;8.578;2023-05-29T03:49:37;11.70;99.90
12089;DHT22;6107;49.078;8.578;2023-05-29T03:52:03;11.50;99.90
12089;DHT22;6107;49.078;8.578;2023-05-29T03:54:29;11.50;99.90
12089;DHT22;6107;49.078;8.578;2023-05-29T03:56:55;11.50;99.90
12089;DHT22;6107;49.078;8.578;2023-05-29T03:59:20;11.50;99.90
12089;DHT22;6107;49.078;8.578;2023-05-29T04:01:46;11.50;99.90
12089;DHT22;6107;49.078;8.578;2023-05-29T04:04:11;11.80;99.90
12089;DHT22;6107;49.078;8.578;2023-05-29T04:06:37;11.50;99.90
12089;DHT22;6107;49.078;8.578;2023-05-29T04:09:06;11.80;99.90
12089;DHT22;6107;49.078;8.578;2023-05-29T04:11:32;11.80;99.90
12089;DHT22;6107;49.078;8.578;2023-05-29T04:14:00;11.40;99.90
12089;DHT22;6107;49.078;8.578;2023-05-29T04:16:27;11.50;99.90
12089;DHT22;6107;49.078;8.578;2023-05-29T04:18:54;11.60;99.90
12089;DHT22;6107;49.078;8.578;2023-05-29T04:21:19;11.60;99.90
12089;DHT22;6107;49.078;8.578;2023-05-29T04:23:45;11.80;99.90
12089;DHT22;6107;49.078;8.578;2023-05-29T04:26:11;11.70;99.90
12089;DHT22;6107;49.078;8.578;2023-05-29T04:28:38;12.00;99.90
12089;DHT22;6107;49.078;8.578;2023-05-29T04:31:04;12.00;99.90
12089;DHT22;6107;49.078;8.578;2023-05-29T04:33:31;11.80;99.90
12089;DHT22;6107;49.078;8.578;2023-05-29T04:35:57;11.70;99.90
12089;DHT22;6107;49.078;8.578;2023-05-29T04:38:23;11.90;99.90
12089;DHT22;6107;49.078;8.578;2023-05-29T04:40:52;11.90;99.90
12089;DHT22;6107;49.078;8.578;2023-05-29T04:43:18;12.10;99.90
12089;DHT22;6107;49.078;8.578;2023-05-29T04:45:43;12.10;99.90
12089;DHT22;6107;49.078;8.578;2023-05-29T04:48:09;12.30;99.90
12089;DHT22;6107;49.078;8.578;2023-05-29T04:50:35;12.30;99.90
12089;DHT22;6107;49.078;8.578;2023-05-29T04:53:02;12.30;99.90
12089;DHT22;6107;49.078;8.578;2023-05-29T04:55:27;12.40;99.90
12089;DHT22;6107;49.078;8.578;2023-05-29T04:57:53;12.60;99.90
12089;DHT22;6107;49.078;8.578;2023-05-29T05:00:19;12.90;99.90
12089;DHT22;6107;49.078;8.578;2023-05-29T05:02:45;12.80;99.90
12089;DHT22;6107;49.078;8.578;2023-05-29T05:05:11;12.90;99.90
12089;DHT22;6107;49.078;8.578;2023-05-29T05:07:37;13.30;99.90
12089;DHT22;6107;49.078;8.578;2023-05-29T05:10:03;13.00;99.90
12089;DHT22;6107;49.078;8.578;2023-05-29T05:12:29;13.20;99.90
12089;DHT22;6107;49.078;8.578;2023-05-29T05:14:55;13.20;99.90
12089;DHT22;6107;49.078;8.578;2023-05-29T05:17:21;13.30;99.90
12089;DHT22;6107;49.078;8.578;2023-05-29T05:19:53;13.10;99.90
12089;DHT22;6107;49.078;8.578;2023-05-29T05:22:21;13.40;99.90
12089;DHT22;6107;49.078;8.578;2023-05-29T05:24:47;13.50;99.90
12089;DHT22;6107;49.078;8.578;2023-05-29T05:27:13;13.60;99.90
12089;DHT22;6107;49.078;8.578;2023-05-29T05:29:39;13.80;99.90
12089;DHT22;6107;49.078;8.578;2023-05-29T05:32:05;13.90;99.90
12089;DHT22;6107;49.078;8.578;2023-05-29T05:34:31;14.00;99.90
12089;DHT22;6107;49.078;8.578;2023-05-29T05:36:56;14.00;99.90
12089;DHT22;6107;49.078;8.578;2023-05-29T05:39:22;14.00;99.90
12089;DHT22;6107;49.078;8.578;2023-05-29T05:41:47;14.50;99.90
12089;DHT22;6107;49.078;8.578;2023-05-29T05:44:13;14.20;99.90
12089;DHT22;6107;49.078;8.578;2023-05-29T05:46:38;14.40;99.90
12089;DHT22;6107;49.078;8.578;2023-05-29T05:49:04;14.50;99.90
12089;DHT22;6107;49.078;8.578;2023-05-29T05:51:29;14.70;99.90
12089;DHT22;6107;49.078;8.578;2023-05-29T05:53:56;14.90;99.90
12089;DHT22;6107;49.078;8.578;2023-05-29T05:56:21;15.00;99.90
12089;DHT22;6107;49.078;8.578;2023-05-29T05:58:47;15.20;99.90
12089;DHT22;6107;49.078;8.578;2023-05-29T06:01:15;15.20;99.90
12089;DHT22;6107;49.078;8.578;2023-05-29T06:03:41;15.50;99.90
12089;DHT22;6107;49.078;8.578;2023-05-29T06:06:07;15.50;99.90
12089;DHT22;6107;49.078;8.578;2023-05-29T06:08:34;15.70;99.90
12089;DHT22;6107;49.078;8.578;2023-05-29T06:10:59;15.90;99.90
12089;DHT22;6107;49.078;8.578;2023-05-29T06:13:25;16.00;99.90
12089;DHT22;6107;49.078;8.578;2023-05-29T06:15:51;15.80;99.90
12089;DHT22;6107;49.078;8.578;2023-05-29T06:18:17;16.20;99.90
12089;DHT22;6107;49.078;8.578;2023-05-29T06:20:42;16.40;99.90
12089;DHT22;6107;49.078;8.578;2023-05-29T06:23:08;16.30;99.90
12089;DHT22;6107;49.078;8.578;2023-05-29T06:25:33;16.40;99.90
12089;DHT22;6107;49.078;8.578;2023-05-29T06:28:00;16.30;99.90
12089;DHT22;6107;49.078;8.578;2023-05-29T06:30:26;16.40;99.90
12089;DHT22;6107;49.078;8.578;2023-05-29T06:32:51;16.70;99.90
12089;DHT22;6107;49.078;8.578;2023-05-29T06:35:17;16.80;99.90
12089;DHT22;6107;49.078;8.578;2023-05-29T06:37:42;16.60;99.90
12089;DHT22;6107;49.078;8.578;2023-05-29T06:40:08;16.80;99.90
12089;DHT22;6107;49.078;8.578;2023-05-29T06:42:34;16.80;99.90
12089;DHT22;6107;49.078;8.578;2023-05-29T06:44:59;16.80;99.90
12089;DHT22;6107;49.078;8.578;2023-05-29T06:47:25;16.90;99.90
12089;DHT22;6107;49.078;8.578;2023-05-29T06:49:51;16.90;99.90
12089;DHT22;6107;49.078;8.578;2023-05-29T06:52:17;17.40;99.90
12089;DHT22;6107;49.078;8.578;2023-05-29T06:54:42;17.30;99.90
12089;DHT22;6107;49.078;8.578;2023-05-29T06:57:08;17.30;99.90
12089;DHT22;6107;49.078;8.578;2023-05-29T06:59:33;17.40;99.90
12089;DHT22;6107;49.078;8.578;2023-05-29T07:01:59;17.50;99.90
12089;DHT22;6107;49.078;8.578;2023-05-29T07:04:24;17.70;99.90
12089;DHT22;6107;49.078;8.578;2023-05-29T07:06:50;17.70;99.90
12089;DHT22;6107;49.078;8.578;2023-05-29T07:09:16;17.90;99.90
12089;DHT22;6107;49.078;8.578;2023-05-29T07:11:42;18.20;99.90
12089;DHT22;6107;49.078;8.578;2023-05-29T07:14:08;18.30;99.90
12089;DHT22;6107;49.078;8.578;2023-05-29T07:16:33;18.20;99.90
12089;DHT22;6107;49.078;8.578;2023-05-29T07:18:59;18.40;99.90
12089;DHT22;6107;49.078;8.578;2023-05-29T07:21:30;18.80;99.90
12089;DHT22;6107;49.078;8.578;2023-05-29T07:23:56;18.50;99.90
12089;DHT22;6107;49.078;8.578;2023-05-29T07:26:22;18.80;99.90
12089;DHT22;6107;49.078;8.578;2023-05-29T07:28:48;18.80;99.90
12089;DHT22;6107;49.078;8.578;2023-05-29T07:31:14;18.80;99.90
12089;DHT22;6107;49.078;8.578;2023-05-29T07:33:40;19.20;99.90
12089;DHT22;6107;49.078;8.578;2023-05-29T07:36:07;19.10;99.90
12089;DHT22;6107;49.078;8.578;2023-05-29T07:38:33;19.30;99.90
12089;DHT22;6107;49.078;8.578;2023-05-29T07:40:58;19.70;99.90
12089;DHT22;6107;49.078;8.578;2023-05-29T07:43:24;19.50;99.90
12089;DHT22;6107;49.078;8.578;2023-05-29T07:45:49;19.50;99.90
12089;DHT22;6107;49.078;8.578;2023-05-29T07:48:15;20.20;99.90
12089;DHT22;6107;49.078;8.578;2023-05-29T07:50:41;20.00;99.90
12089;DHT22;6107;49.078;8.578;2023-05-29T07:53:06;20.20;99.90
12089;DHT22;6107;49.078;8.578;2023-05-29T07:55:33;20.20;99.90
12089;DHT22;6107;49.078;8.578;2023-05-29T07:57:59;19.90;99.90
12089;DHT22;6107;49.078;8.578;2023-05-29T08:00:25;20.10;99.90
12089;DHT22;6107;49.078;8.578;2023-05-29T08:02:51;20.10;99.90
12089;DHT22;6107;49.078;8.578;2023-05-29T08:05:17;20.20;99.90
12089;DHT22;6107;49.078;8.578;2023-05-29T08:07:43;20.30;99.90
12089;DHT22;6107;49.078;8.578;2023-05-29T08:10:09;20.10;99.90
12089;DHT22;6107;49.078;8.578;2023-05-29T08:12:35;20.30;99.90
12089;DHT22;6107;49.078;8.578;2023-05-29T08:15:01;20.30;99.90
12089;DHT22;6107;49.078;8.578;2023-05-29T08:17:27;20.50;99.90
12089;DHT22;6107;49.078;8.578;2023-05-29T08:19:53;20.70;99.90
12089;DHT22;6107;49.078;8.578;2023-05-29T08:22:19;20.80;99.90
12089;DHT22;6107;49.078;8.578;2023-05-29T08:24:44;20.90;99.90
12089;DHT22;6107;49.078;8.578;2023-05-29T08:27:10;21.10;99.90
12089;DHT22;6107;49.078;8.578;2023-05-29T08:29:35;21.40;99.90
12089;DHT22;6107;49.078;8.578;2023-05-29T08:32:02;21.40;99.90
12089;DHT22;6107;49.078;8.578;2023-05-29T08:34:30;21.60;99.90
12089;DHT22;6107;49.078;8.578;2023-05-29T08:36:56;21.70;99.90
12089;DHT22;6107;49.078;8.578;2023-05-29T08:39:21;21.90;99.90
12089;DHT22;6107;49.078;8.578;2023-05-29T08:42:00;21.40;99.90
12089;DHT22;6107;49.078;8.578;2023-05-29T08:44:30;22.10;99.90
12089;DHT22;6107;49.078;8.578;2023-05-29T08:46:56;22.10;99.90
12089;DHT22;6107;49.078;8.578;2023-05-29T08:49:23;22.10;99.90
12089;DHT22;6107;49.078;8.578;2023-05-29T08:51:55;22.20;99.90
12089;DHT22;6107;49.078;8.578;2023-05-29T08:54:23;22.40;99.90
12089;DHT22;6107;49.078;8.578;2023-05-29T08:56:49;22.60;99.90
12089;DHT22;6107;49.078;8.578;2023-05-29T08:59:14;22.60;99.90
12089;DHT22;6107;49.078;8.578;2023-05-29T09:01:41;22.50;99.90
12089;DHT22;6107;49.078;8.578;2023-05-29T09:04:07;23.00;99.90
12089;DHT22;6107;49.078;8.578;2023-05-29T09:06:34;23.00;99.90
12089;DHT22;6107;49.078;8.578;2023-05-29T09:09:01;23.20;99.90
12089;DHT22;6107;49.078;8.578;2023-05-29T09:11:27;23.10;99.90
12089;DHT22;6107;49.078;8.578;2023-05-29T09:13:54;23.50;99.90
12089;DHT22;6107;49.078;8.578;2023-05-29T09:16:19;23.80;99.90
12089;DHT22;6107;49.078;8.578;2023-05-29T09:18:45;23.60;99.90
12089;DHT22;6107;49.078;8.578;2023-05-29T09:21:25;23.70;99.90
12089;DHT22;6107;49.078;8.578;2023-05-29T09:23:58;23.60;99.90
12089;DHT22;6107;49.078;8.578;2023-05-29T09:26:27;24.00;99.90
12089;DHT22;6107;49.078;8.578;2023-05-29T09:28:53;23.80;99.90
12089;DHT22;6107;49.078;8.578;2023-05-29T09:31:19;23.90;99.90
12089;DHT22;6107;49.078;8.578;2023-05-29T09:33:50;23.80;99.90
12089;DHT22;6107;49.078;8.578;2023-05-29T09:36:22;24.50;99.90
12089;DHT22;6107;49.078;8.578;2023-05-29T09:38:48;24.40;99.90
12089;DHT22;6107;49.078;8.578;2023-05-29T09:41:20;24.50;99.90
12089;DHT22;6107;49.078;8.578;2023-05-29T09:43:50;24.70;99.90
12089;DHT22;6107;49.078;8.578;2023-05-29T09:46:16;25.00;99.90
12089;DHT22;6107;49.078;8.578;2023-05-29T09:48:43;25.20;99.90
12089;DHT22;6107;49.078;8.578;2023-05-29T09:51:20;25.20;99.90
12089;DHT22;6107;49.078;8.578;2023-05-29T09:53:47;25.10;99.90
12089;DHT22;6107;49.078;8.578;2023-05-29T09:56:15;25.30;99.90
12089;DHT22;6107;49.078;8.578;2023-05-29T09:58:42;25.30;99.90
12089;DHT22;6107;49.078;8.578;2023-05-29T10:01:16;25.40;99.90
12089;DHT22;6107;49.078;8.578;2023-05-29T10:03:42;25.30;99.90
12089;DHT22;6107;49.078;8.578;2023-05-29T10:06:10;25.40;99.90
12089;DHT22;6107;49.078;8.578;2023-05-29T10:08:46;25.50;99.90
12089;DHT22;6107;49.078;8.578;2023-05-29T10:11:22;25.80;99.90
12089;DHT22;6107;49.078;8.578;2023-05-29T10:13:51;26.10;99.90
12089;DHT22;6107;49.078;8.578;2023-05-29T10:16:20;26.20;99.90
12089;DHT22;6107;49.078;8.578;2023-05-29T10:18:53;25.80;99.90
12089;DHT22;6107;49.078;8.578;2023-05-29T10:21:21;25.70;99.90
12089;DHT22;6107;49.078;8.578;2023-05-29T10:23:50;25.90;99.90
12089;DHT22;6107;49.078;8.578;2023-05-29T10:26:24;26.10;99.90
12089;DHT22;6107;49.078;8.578;2023-05-29T10:29:14;26.20;99.90
12089;DHT22;6107;49.078;8.578;2023-05-29T10:37:06;26.30;99.90
12089;DHT22;6107;49.078;8.578;2023-05-29T10:39:33;26.20;99.90
12089;DHT22;6107;49.078;8.578;2023-05-29T10:41:59;26.70;99.90
12089;DHT22;6107;49.078;8.578;2023-05-29T10:47:01;27.00;99.90
12089;DHT22;6107;49.078;8.578;2023-05-29T10:49:28;27.00;99.90
12089;DHT22;6107;49.078;8.578;2023-05-29T10:51:54;27.20;99.90
12089;DHT22;6107;49.078;8.578;2023-05-29T10:54:23;26.90;99.90
12089;DHT22;6107;49.078;8.578;2023-05-29T10:56:57;26.90;99.90
12089;DHT22;6107;49.078;8.578;2023-05-29T10:59:24;27.00;99.90
12089;DHT22;6107;49.078;8.578;2023-05-29T11:01:53;26.90;99.90
12089;DHT22;6107;49.078;8.578;2023-05-29T11:06:50;27.20;99.90
12089;DHT22;6107;49.078;8.578;2023-05-29T11:09:35;27.50;99.90
12089;DHT22;6107;49.078;8.578;2023-05-29T11:12:55;27.50;99.90
12089;DHT22;6107;49.078;8.578;2023-05-29T11:15:21;28.00;99.90
12089;DHT22;6107;49.078;8.578;2023-05-29T11:17:46;28.00;99.90
12089;DHT22;6107;49.078;8.578;2023-05-29T11:20:42;28.10;99.90
12089;DHT22;6107;49.078;8.578;2023-05-29T11:23:15;28.20;99.90
12089;DHT22;6107;49.078;8.578;2023-05-29T11:25:44;28.40;99.90
12089;DHT22;6107;49.078;8.578;2023-05-29T11:28:11;28.40;99.90
12089;DHT22;6107;49.078;8.578;2023-05-29T11:30:48;28.50;99.90
12089;DHT22;6107;49.078;8.578;2023-05-29T11:33:20;28.10;98.00
12089;DHT22;6107;49.078;8.578;2023-05-29T11:35:57;28.20;97.50
12089;DHT22;6107;49.078;8.578;2023-05-29T11:38:24;28.20;97.90
12089;DHT22;6107;49.078;8.578;2023-05-29T11:40:51;28.50;97.90
12089;DHT22;6107;49.078;8.578;2023-05-29T11:43:17;28.60;96.50
12089;DHT22;6107;49.078;8.578;2023-05-29T11:45:42;28.50;98.30
12089;DHT22;6107;49.078;8.578;2023-05-29T11:48:08;28.60;97.10
12089;DHT22;6107;49.078;8.578;2023-05-29T11:50:34;28.90;96.40
12089;DHT22;6107;49.078;8.578;2023-05-29T11:53:08;29.00;96.50
12089;DHT22;6107;49.078;8.578;2023-05-29T11:55:34;28.80;98.30
12089;DHT22;6107;49.078;8.578;2023-05-29T11:58:01;29.20;96.10
12089;DHT22;6107;49.078;8.578;2023-05-29T12:00:37;29.30;96.40
12089;DHT22;6107;49.078;8.578;2023-05-29T12:03:05;29.20;96.60
12089;DHT22;6107;49.078;8.578;2023-05-29T12:05:47;28.80;94.90
12089;DHT22;6107;49.078;8.578;2023-05-29T12:08:14;28.40;96.40
12089;DHT22;6107;49.078;8.578;2023-05-29T12:10:48;28.40;95.30
12089;DHT22;6107;49.078;8.578;2023-05-29T12:13:18;28.60;95.00
12089;DHT22;6107;49.078;8.578;2023-05-29T12:15:45;29.00;96.20
12089;DHT22;6107;49.078;8.578;2023-05-29T12:18:11;29.10;93.90
12089;DHT22;6107;49.078;8.578;2023-05-29T12:20:37;29.10;92.50
12089;DHT22;6107;49.078;8.578;2023-05-29T12:23:02;29.40;93.20
12089;DHT22;6107;49.078;8.578;2023-05-29T12:25:28;29.50;91.30
12089;DHT22;6107;49.078;8.578;2023-05-29T12:27:57;29.30;93.00
12089;DHT22;6107;49.078;8.578;2023-05-29T12:30:24;29.40;91.80
12089;DHT22;6107;49.078;8.578;2023-05-29T12:32:52;29.70;93.90
12089;DHT22;6107;49.078;8.578;2023-05-29T12:35:21;29.50;90.00
12089;DHT22;6107;49.078;8.578;2023-05-29T12:37:47;29.50;90.70
12089;DHT22;6107;49.078;8.578;2023-05-29T12:40:23;29.40;90.10
12089;DHT22;6107;49.078;8.578;2023-05-29T12:42:57;29.20;90.90
12089;DHT22;6107;49.078;8.578;2023-05-29T12:45:28;29.90;91.90
12089;DHT22;6107;49.078;8.578;2023-05-29T12:47:56;29.70;88.70
12089;DHT22;6107;49.078;8.578;2023-05-29T12:50:26;30.00;92.50
12089;DHT22;6107;49.078;8.578;2023-05-29T12:53:01;29.40;87.70
12089;DHT22;6107;49.078;8.578;2023-05-29T12:55:28;29.50;90.00
12089;DHT22;6107;49.078;8.578;2023-05-29T12:57:55;29.90;89.40
12089;DHT22;6107;49.078;8.578;2023-05-29T13:00:22;30.00;86.90
12089;DHT22;6107;49.078;8.578;2023-05-29T13:02:49;29.80;85.20
12089;DHT22;6107;49.078;8.578;2023-05-29T13:05:15;30.10;90.10
12089;DHT22;6107;49.078;8.578;2023-05-29T13:07:42;30.50;87.90
12089;DHT22;6107;49.078;8.578;2023-05-29T13:10:08;30.00;86.10
12089;DHT22;6107;49.078;8.578;2023-05-29T13:12:35;30.60;90.60
12089;DHT22;6107;49.078;8.578;2023-05-29T13:15:01;30.00;83.00
12089;DHT22;6107;49.078;8.578;2023-05-29T13:17:26;30.30;89.20
12089;DHT22;6107;49.078;8.578;2023-05-29T13:19:52;30.50;88.10
12089;DHT22;6107;49.078;8.578;2023-05-29T13:22:17;30.40;85.40
12089;DHT22;6107;49.078;8.578;2023-05-29T13:24:43;30.60;87.00
12089;DHT22;6107;49.078;8.578;2023-05-29T13:27:08;30.60;83.10
12089;DHT22;6107;49.078;8.578;2023-05-29T13:29:34;30.00;84.90
12089;DHT22;6107;49.078;8.578;2023-05-29T13:32:00;29.90;85.80
12089;DHT22;6107;49.078;8.578;2023-05-29T13:34:26;30.30;81.80
12089;DHT22;6107;49.078;8.578;2023-05-29T13:36:54;30.20;84.30
12089;DHT22;6107;49.078;8.578;2023-05-29T13:39:20;30.40;84.70
12089;DHT22;6107;49.078;8.578;2023-05-29T13:41:46;30.10;83.20
12089;DHT22;6107;49.078;8.578;2023-05-29T13:44:12;30.40;85.70
12089;DHT22;6107;49.078;8.578;2023-05-29T13:46:37;30.50;82.70
12089;DHT22;6107;49.078;8.578;2023-05-29T13:49:03;30.30;81.90
12089;DHT22;6107;49.078;8.578;2023-05-29T13:51:28;30.60;81.10
12089;DHT22;6107;49.078;8.578;2023-05-29T13:53:54;30.60;81.30
12089;DHT22;6107;49.078;8.578;2023-05-29T13:56:20;31.00;83.30
12089;DHT22;6107;49.078;8.578;2023-05-29T13:58:45;31.60;83.80
12089;DHT22;6107;49.078;8.578;2023-05-29T14:01:11;31.30;80.70
12089;DHT22;6107;49.078;8.578;2023-05-29T14:03:38;30.70;83.00
12089;DHT22;6107;49.078;8.578;2023-05-29T14:06:04;30.50;83.30
12089;DHT22;6107;49.078;8.578;2023-05-29T14:08:31;30.20;82.60
12089;DHT22;6107;49.078;8.578;2023-05-29T14:10:56;30.40;80.30
12089;DHT22;6107;49.078;8.578;2023-05-29T14:13:22;30.00;82.80
12089;DHT22;6107;49.078;8.578;2023-05-29T14:15:47;30.60;82.40
12089;DHT22;6107;49.078;8.578;2023-05-29T14:18:15;30.80;84.40
12089;DHT22;6107;49.078;8.578;2023-05-29T14:20:41;30.70;85.50
12089;DHT22;6107;49.078;8.578;2023-05-29T14:23:06;30.50;80.40
12089;DHT22;6107;49.078;8.578;2023-05-29T14:25:34;30.10;82.80
12089;DHT22;6107;49.078;8.578;2023-05-29T14:28:00;30.80;85.00
12089;DHT22;6107;49.078;8.578;2023-05-29T14:30:25;30.90;78.50
12089;DHT22;6107;49.078;8.578;2023-05-29T14:32:51;31.00;79.80
12089;DHT22;6107;49.078;8.578;2023-05-29T14:35:17;31.10;81.20
12089;DHT22;6107;49.078;8.578;2023-05-29T14:37:42;31.30;76.30
12089;DHT22;6107;49.078;8.578;2023-05-29T14:40:08;31.00;76.10
12089;DHT22;6107;49.078;8.578;2023-05-29T14:42:34;30.70;80.00
12089;DHT22;6107;49.078;8.578;2023-05-29T14:45:00;30.90;76.80
12089;DHT22;6107;49.078;8.578;2023-05-29T14:47:25;31.00;78.30
12089;DHT22;6107;49.078;8.578;2023-05-29T14:49:51;30.70;77.20
12089;DHT22;6107;49.078;8.578;2023-05-29T14:52:16;30.80;79.50
12089;DHT22;6107;49.078;8.578;2023-05-29T14:54:42;30.90;80.90
12089;DHT22;6107;49.078;8.578;2023-05-29T14:57:15;31.00;79.30
12089;DHT22;6107;49.078;8.578;2023-05-29T14:59:40;31.10;81.10
12089;DHT22;6107;49.078;8.578;2023-05-29T15:02:07;31.30;81.90
12089;DHT22;6107;49.078;8.578;2023-05-29T15:04:32;31.80;82.10
12089;DHT22;6107;49.078;8.578;2023-05-29T15:06:58;31.30;76.90
12089;DHT22;6107;49.078;8.578;2023-05-29T15:09:24;30.70;77.60
12089;DHT22;6107;49.078;8.578;2023-05-29T15:11:49;31.00;76.90
12089;DHT22;6107;49.078;8.578;2023-05-29T15:14:16;30.60;78.70
12089;DHT22;6107;49.078;8.578;2023-05-29T15:16:42;30.60;79.20
12089;DHT22;6107;49.078;8.578;2023-05-29T15:19:08;30.60;75.20
12089;DHT22;6107;49.078;8.578;2023-05-29T15:21:33;30.40;75.20
12089;DHT22;6107;49.078;8.578;2023-05-29T15:23:59;30.30;76.60
12089;DHT22;6107;49.078;8.578;2023-05-29T15:26:24;30.20;74.40
12089;DHT22;6107;49.078;8.578;2023-05-29T15:28:51;30.00;79.30
12089;DHT22;6107;49.078;8.578;2023-05-29T15:31:17;30.70;80.70
12089;DHT22;6107;49.078;8.578;2023-05-29T15:33:43;30.90;79.00
12089;DHT22;6107;49.078;8.578;2023-05-29T15:36:08;30.90;77.30
12089;DHT22;6107;49.078;8.578;2023-05-29T15:38:35;30.60;73.90
12089;DHT22;6107;49.078;8.578;2023-05-29T15:41:00;30.60;74.90
12089;DHT22;6107;49.078;8.578;2023-05-29T15:43:26;30.40;75.90
12089;DHT22;6107;49.078;8.578;2023-05-29T15:45:51;30.40;75.40
12089;DHT22;6107;49.078;8.578;2023-05-29T15:48:17;30.10;75.40
12089;DHT22;6107;49.078;8.578;2023-05-29T15:50:43;29.90;77.10
12089;DHT22;6107;49.078;8.578;2023-05-29T15:53:08;29.80;75.30
12089;DHT22;6107;49.078;8.578;2023-05-29T15:55:34;30.00;76.60
12089;DHT22;6107;49.078;8.578;2023-05-29T15:57:59;30.00;77.20
12089;DHT22;6107;49.078;8.578;2023-05-29T16:00:25;29.90;74.60
12089;DHT22;6107;49.078;8.578;2023-05-29T16:02:51;29.50;74.20
12089;DHT22;6107;49.078;8.578;2023-05-29T16:05:16;29.30;74.90
12089;DHT22;6107;49.078;8.578;2023-05-29T16:07:43;29.60;72.80